createdAt,value
2023-05-10T00:00:05.853Z,99.90
2023-05-10T00:02:32.758Z,99.90
2023-05-10T00:04:59.518Z,99.90
2023-05-10T00:07:26.144Z,99.90
2023-05-10T00:09:52.924Z,99.90
2023-05-10T00:12:19.599Z,99.90
2023-05-10T00:14:46.257Z,99.90
2023-05-10T00:17:12.940Z,99.90
2023-05-10T00:19:39.684Z,99.90
2023-05-10T00:27:01.586Z,99.90
2023-05-10T00:29:29.322Z,99.90
2023-05-10T00:31:56.343Z,99.90
2023-05-10T00:34:23.017Z,99.90
2023-05-10T00:36:51.861Z,99.90
2023-05-10T00:39:20.694Z,99.90
2023-05-10T00:41:49.602Z,99.90
2023-05-10T00:44:16.364Z,99.90
2023-05-10T00:46:48.123Z,99.90
2023-05-10T00:49:14.877Z,99.90
2023-05-10T00:51:43.777Z,99.90
2023-05-10T00:54:14.279Z,99.90
2023-05-10T00:56:49.371Z,99.90
2023-05-10T00:59:21.762Z,99.90
2023-05-10T01:01:48.871Z,99.90
2023-05-10T01:04:16.218Z,99.90
2023-05-10T01:06:43.815Z,99.90
2023-05-10T01:09:12.541Z,99.90
2023-05-10T01:11:42.568Z,99.90
2023-05-10T01:14:09.522Z,99.90
2023-05-10T01:16:42.001Z,99.90
2023-05-10T01:19:19.813Z,99.90
2023-05-10T01:22:21.249Z,99.90
2023-05-10T01:25:02.972Z,99.90
2023-05-10T01:27:41.590Z,99.90
2023-05-10T01:30:38.235Z,99.90
2023-05-10T01:33:19.811Z,99.90
2023-05-10T01:36:07.920Z,99.90
2023-05-10T01:38:50.875Z,99.90
2023-05-10T01:41:26.850Z,99.90
2023-05-10T01:44:11.434Z,99.90
2023-05-10T01:46:40.560Z,99.90
2023-05-10T01:49:24.509Z,99.90
2023-05-10T01:51:58.058Z,99.90
2023-05-10T01:54:29.252Z,99.90
2023-05-10T01:57:06.625Z,99.90
2023-05-10T01:59:38.004Z,99.90
2023-05-10T02:02:12.618Z,99.90
2023-05-10T02:04:43.155Z,99.90
2023-05-10T02:07:10.557Z,99.90
2023-05-10T02:09:38.039Z,99.90
2023-05-10T02:12:09.382Z,99.90
2023-05-10T02:14:39.957Z,99.90
2023-05-10T02:17:08.645Z,99.90
2023-05-10T02:19:41.516Z,99.90
2023-05-10T02:22:12.451Z,99.90
2023-05-10T02:24:42.153Z,99.90
2023-05-10T02:27:10.729Z,99.90
2023-05-10T02:29:37.956Z,99.90
2023-05-10T02:32:07.350Z,99.90
2023-05-10T02:34:34.681Z,99.90
2023-05-10T02:37:04.600Z,99.90
2023-05-10T02:39:33.336Z,99.90
2023-05-10T02:42:01.573Z,99.90
2023-05-10T02:44:31.969Z,99.90
2023-05-10T02:46:59.588Z,99.90
2023-05-10T02:49:26.639Z,99.90
2023-05-10T02:51:58.333Z,99.90
2023-05-10T02:54:35.245Z,99.90
2023-05-10T02:57:06.699Z,99.90
2023-05-10T02:59:33.643Z,99.90
2023-05-10T03:02:01.485Z,99.90
2023-05-10T03:04:30.593Z,99.90
2023-05-10T03:06:57.503Z,99.90
2023-05-10T03:09:24.336Z,99.90
2023-05-10T03:12:19.785Z,99.90
2023-05-10T03:14:58.742Z,99.90
2023-05-10T03:17:56.968Z,99.90
2023-05-10T03:20:27.254Z,99.90
2023-05-10T03:23:01.302Z,99.90
2023-05-10T03:25:35.237Z,99.90
2023-05-10T03:28:07.227Z,99.90
2023-05-10T03:30:38.260Z,99.90
2023-05-10T03:33:08.371Z,99.90
2023-05-10T03:35:37.404Z,99.90
2023-05-10T03:38:04.077Z,99.90
2023-05-10T03:40:33.413Z,99.90
2023-05-10T03:43:00.457Z,99.90
2023-05-10T03:45:27.792Z,99.90
2023-05-10T03:47:55.004Z,99.90
2023-05-10T03:50:22.149Z,99.90
2023-05-10T03:55:16.132Z,99.90
2023-05-10T03:57:43.218Z,99.90
2023-05-10T04:00:10.794Z,99.90
2023-05-10T04:02:38.458Z,99.90
2023-05-10T04:05:08.144Z,99.90
2023-05-10T04:07:39.578Z,99.90
2023-05-10T04:10:06.853Z,99.90
2023-05-10T04:12:33.505Z,99.90
2023-05-10T04:17:27.939Z,99.90
2023-05-10T04:19:56.882Z,99.90
2023-05-10T04:22:23.660Z,99.90
2023-05-10T04:24:52.743Z,99.90
2023-05-10T04:27:19.512Z,99.90
2023-05-10T04:29:46.167Z,99.90
2023-05-10T04:32:12.837Z,99.90
2023-05-10T04:34:39.478Z,99.90
2023-05-10T04:37:10.852Z,99.90
2023-05-10T04:39:38.116Z,99.90
2023-05-10T04:42:08.275Z,99.90
2023-05-10T04:44:34.939Z,99.90
2023-05-10T04:47:03.170Z,99.90
2023-05-10T04:49:30.614Z,99.90
2023-05-10T04:51:59.542Z,99.90
2023-05-10T04:54:26.357Z,99.90
2023-05-10T04:56:55.334Z,99.90
2023-05-10T04:59:22.104Z,99.90
2023-05-10T05:01:51.340Z,99.90
2023-05-10T05:04:20.390Z,99.90
2023-05-10T05:06:50.618Z,99.90
2023-05-10T05:09:21.361Z,99.90
2023-05-10T05:11:48.022Z,99.90
2023-05-10T05:14:17.706Z,99.90
2023-05-10T05:16:46.631Z,99.90
2023-05-10T05:19:17.970Z,99.90
2023-05-10T05:21:47.134Z,99.90
2023-05-10T05:24:13.838Z,99.90
2023-05-10T05:26:42.992Z,99.90
2023-05-10T05:31:41.614Z,99.90
2023-05-10T05:34:08.339Z,99.90
2023-05-10T05:36:39.388Z,99.90
2023-05-10T05:39:06.062Z,99.90
2023-05-10T05:41:35.251Z,99.90
2023-05-10T05:44:04.291Z,99.90
2023-05-10T05:46:31.005Z,99.90
2023-05-10T05:48:57.784Z,99.90
2023-05-10T05:51:26.946Z,99.90
2023-05-10T05:53:53.951Z,99.90
2023-05-10T05:56:25.510Z,99.90
2023-05-10T05:58:54.813Z,99.90
2023-05-10T06:03:53.149Z,99.90
2023-05-10T06:06:22.553Z,99.90
2023-05-10T06:08:49.291Z,99.90
2023-05-10T06:11:16.166Z,99.90
2023-05-10T06:13:43.369Z,99.90
2023-05-10T06:16:10.056Z,99.90
2023-05-10T06:18:37.175Z,99.90
2023-05-10T06:21:06.079Z,99.90
2023-05-10T06:23:33.046Z,99.90
2023-05-10T06:28:29.046Z,99.90
2023-05-10T06:33:23.290Z,99.90
2023-05-10T06:35:54.943Z,99.90
2023-05-10T06:38:21.612Z,99.90
2023-05-10T06:40:51.048Z,99.90
2023-05-10T06:45:48.530Z,99.90
2023-05-10T06:48:15.260Z,99.90
2023-05-10T06:50:44.922Z,99.90
2023-05-10T06:53:14.266Z,99.90
2023-05-10T06:55:41.213Z,99.90
2023-05-10T06:58:10.145Z,99.90
2023-05-10T07:00:40.157Z,99.90
2023-05-10T07:03:07.219Z,99.90
2023-05-10T07:05:34.028Z,99.90
2023-05-10T07:08:01.195Z,99.90
2023-05-10T07:10:27.909Z,99.90
2023-05-10T07:12:54.635Z,99.90
2023-05-10T07:15:21.542Z,99.90
2023-05-10T07:17:48.353Z,99.90
2023-05-10T07:20:17.669Z,99.90
2023-05-10T07:22:44.337Z,99.90
2023-05-10T07:25:11.669Z,99.90
2023-05-10T07:27:40.455Z,99.90
2023-05-10T07:30:09.977Z,99.90
2023-05-10T07:32:36.834Z,99.90
2023-05-10T07:35:06.505Z,99.90
2023-05-10T07:37:36.002Z,99.90
2023-05-10T07:40:05.383Z,99.90
2023-05-10T07:42:32.043Z,99.90
2023-05-10T07:44:58.878Z,99.90
2023-05-10T07:47:25.970Z,99.90
2023-05-10T07:49:54.860Z,99.90
2023-05-10T07:52:24.168Z,99.90
2023-05-10T08:44:52.058Z,99.90
2023-05-10T08:47:19.547Z,99.90
2023-05-10T08:49:52.125Z,99.90
2023-05-10T08:52:19.261Z,99.90
2023-05-10T08:59:42.725Z,99.90
2023-05-10T09:14:36.261Z,99.90
2023-05-10T09:29:23.074Z,95.50
2023-05-10T09:31:55.564Z,95.20
2023-05-10T09:34:33.630Z,94.90
2023-05-10T09:37:02.387Z,94.30
2023-05-10T09:39:38.497Z,95.40
2023-05-10T09:42:12.491Z,94.30
2023-05-10T09:44:39.353Z,93.40
2023-05-10T09:47:06.898Z,94.20
2023-05-10T09:49:35.954Z,94.80
2023-05-10T09:52:07.645Z,95.00
2023-05-10T09:54:35.281Z,93.90
2023-05-10T09:57:04.685Z,93.10
2023-05-10T09:59:36.149Z,93.30
2023-05-10T10:02:05.416Z,94.30
2023-05-10T10:04:32.660Z,94.40
2023-05-10T10:07:04.855Z,93.80
2023-05-10T10:09:32.555Z,98.30
2023-05-10T10:12:01.289Z,99.90
2023-05-10T10:17:08.033Z,99.10
2023-05-10T10:19:39.035Z,99.90
2023-05-10T10:22:08.183Z,99.10
2023-05-10T10:24:37.165Z,99.90
2023-05-10T10:30:00.928Z,99.90
2023-05-10T10:32:43.621Z,95.90
2023-05-10T10:35:13.020Z,97.20
2023-05-10T10:37:47.654Z,97.70
2023-05-10T10:40:33.634Z,97.40
2023-05-10T10:43:39.992Z,97.60
2023-05-10T10:46:15.617Z,96.90
2023-05-10T10:48:52.479Z,97.10
2023-05-10T10:51:19.282Z,98.60
2023-05-10T10:53:49.027Z,97.60
2023-05-10T10:56:16.469Z,97.90
2023-05-10T10:58:52.248Z,98.20
2023-05-10T11:01:19.807Z,98.30
2023-05-10T11:04:01.664Z,98.80
2023-05-10T11:06:37.811Z,98.40
2023-05-10T11:09:12.479Z,97.90
2023-05-10T11:11:59.378Z,97.80
2023-05-10T11:14:28.331Z,98.90
2023-05-10T11:16:55.399Z,98.30
2023-05-10T11:19:28.330Z,98.60
2023-05-10T11:22:07.159Z,98.00
2023-05-10T11:24:34.717Z,96.00
2023-05-10T11:27:01.981Z,94.90
2023-05-10T11:29:31.112Z,93.90
2023-05-10T11:32:00.988Z,93.30
2023-05-10T11:34:28.756Z,94.10
2023-05-10T11:36:56.848Z,93.20
2023-05-10T11:39:28.653Z,92.30
2023-05-10T11:41:56.098Z,92.50
2023-05-10T11:44:22.862Z,91.00
2023-05-10T11:46:50.230Z,92.00
2023-05-10T11:49:19.611Z,91.10
2023-05-10T11:51:48.691Z,86.50
2023-05-10T11:54:17.674Z,87.60
2023-05-10T11:56:44.346Z,88.30
2023-05-10T11:59:11.099Z,90.10
2023-05-10T12:01:38.083Z,89.60
2023-05-10T12:06:37.458Z,89.30
2023-05-10T12:09:08.883Z,90.10
2023-05-10T12:11:46.752Z,90.10
2023-05-10T12:14:13.700Z,90.30
2023-05-10T12:16:42.851Z,90.90
2023-05-10T12:19:12.157Z,91.10
2023-05-10T12:21:44.061Z,91.30
2023-05-10T12:24:11.757Z,91.60
2023-05-10T12:26:38.436Z,90.90
2023-05-10T12:29:19.877Z,90.10
2023-05-10T12:32:00.481Z,93.40
2023-05-10T12:34:35.906Z,90.50
2023-05-10T12:37:08.110Z,90.30
2023-05-10T12:39:47.739Z,90.40
2023-05-10T12:42:14.447Z,91.00
2023-05-10T12:44:41.425Z,90.80
2023-05-10T12:47:08.568Z,90.80
2023-05-10T12:49:35.416Z,90.40
2023-05-10T12:52:02.249Z,89.10
2023-05-10T12:54:33.794Z,89.90
2023-05-10T12:57:00.829Z,90.10
2023-05-10T12:59:27.570Z,89.40
2023-05-10T13:01:54.679Z,89.90
2023-05-10T13:04:21.394Z,85.80
2023-05-10T13:06:50.703Z,87.00
2023-05-10T13:09:19.941Z,88.00
2023-05-10T13:11:48.267Z,88.80
2023-05-10T13:14:17.346Z,87.60
2023-05-10T13:16:48.777Z,88.40
2023-05-10T13:19:17.120Z,87.80
2023-05-10T13:21:45.212Z,86.50
2023-05-10T13:24:14.684Z,88.10
2023-05-10T13:26:44.253Z,84.30
2023-05-10T13:29:11.072Z,86.70
2023-05-10T13:31:37.832Z,83.70
2023-05-10T13:34:06.211Z,85.00
2023-05-10T13:39:03.520Z,83.00
2023-05-10T13:41:32.381Z,83.70
2023-05-10T13:43:59.189Z,78.90
2023-05-10T13:48:55.511Z,82.30
2023-05-10T13:51:22.203Z,83.50
2023-05-10T13:53:49.152Z,83.90
2023-05-10T13:56:16.284Z,81.70
2023-05-10T13:58:43.010Z,81.50
2023-05-10T14:01:09.869Z,82.60
2023-05-10T14:03:39.139Z,81.60
2023-05-10T14:06:08.419Z,78.80
2023-05-10T14:08:36.397Z,76.50
2023-05-10T14:11:03.226Z,76.70
2023-05-10T14:13:29.987Z,75.20
2023-05-10T14:15:56.831Z,74.30
2023-05-10T14:18:26.859Z,74.40
2023-05-10T14:20:56.485Z,76.70
2023-05-10T14:23:27.068Z,75.00
2023-05-10T14:25:53.870Z,73.90
2023-05-10T14:28:22.065Z,76.30
2023-05-10T14:30:51.220Z,77.10
2023-05-10T14:33:18.518Z,79.80
2023-05-10T14:35:48.384Z,78.10
2023-05-10T14:38:15.709Z,77.90
2023-05-10T14:40:43.241Z,77.80
2023-05-10T14:43:10.228Z,79.40
2023-05-10T14:45:39.561Z,75.30
2023-05-10T14:48:12.188Z,75.70
2023-05-10T14:50:39.683Z,77.20
2023-05-10T14:53:08.991Z,79.30
2023-05-10T14:58:03.807Z,80.30
2023-05-10T15:00:33.113Z,79.80
2023-05-10T15:03:02.566Z,79.30
2023-05-10T15:05:32.161Z,81.50
2023-05-10T15:08:01.616Z,84.70
2023-05-10T15:10:31.611Z,83.10
2023-05-10T15:12:59.951Z,81.20
2023-05-10T15:15:27.061Z,81.50
2023-05-10T15:17:53.824Z,83.40
2023-05-10T15:20:20.850Z,83.90
2023-05-10T15:22:47.828Z,84.30
2023-05-10T15:25:15.758Z,81.00
2023-05-10T15:27:44.542Z,79.50
2023-05-10T15:30:11.975Z,81.20
2023-05-10T15:32:40.371Z,82.80
2023-05-10T15:35:11.126Z,80.80
2023-05-10T15:37:38.563Z,79.40
2023-05-10T15:40:08.217Z,79.10
2023-05-10T15:42:35.483Z,79.40
2023-05-10T15:45:02.159Z,81.50
2023-05-10T15:47:31.671Z,82.70
2023-05-10T15:50:01.109Z,82.90
2023-05-10T15:52:28.261Z,83.90
2023-05-10T15:54:55.231Z,81.90
2023-05-10T15:57:21.936Z,83.30
2023-05-10T15:59:49.387Z,80.80
2023-05-10T16:02:17.567Z,80.50
2023-05-10T16:04:44.617Z,80.60
2023-05-10T16:07:13.864Z,83.20
2023-05-10T16:09:41.371Z,81.20
2023-05-10T16:12:08.556Z,83.50
2023-05-10T16:14:35.461Z,83.80
2023-05-10T16:17:04.927Z,82.10
2023-05-10T16:19:32.056Z,83.90
2023-05-10T16:21:58.841Z,83.40
2023-05-10T16:24:26.274Z,85.70
2023-05-10T16:26:53.153Z,85.60
2023-05-10T16:29:22.314Z,84.50
2023-05-10T16:31:51.624Z,86.50
2023-05-10T16:34:20.419Z,85.60
2023-05-10T16:36:47.170Z,86.00
2023-05-10T16:39:13.921Z,86.90
2023-05-10T16:41:42.805Z,87.50
2023-05-10T16:44:12.047Z,87.80
2023-05-10T16:46:39.030Z,88.50
2023-05-10T16:49:13.972Z,88.20
2023-05-10T16:51:40.947Z,89.20
2023-05-10T16:54:10.086Z,89.50
2023-05-10T16:56:39.308Z,89.30
2023-05-10T16:59:06.020Z,89.80
2023-05-10T17:01:35.427Z,90.20
2023-05-10T17:04:04.461Z,90.30
2023-05-10T17:06:35.293Z,90.30
2023-05-10T17:09:01.961Z,90.30
2023-05-10T17:11:30.958Z,90.30
2023-05-10T17:13:59.616Z,90.90
2023-05-10T17:16:30.056Z,90.90
2023-05-10T17:19:01.972Z,91.50
2023-05-10T17:21:28.771Z,91.30
2023-05-10T17:23:57.928Z,91.40
2023-05-10T17:26:27.463Z,91.70
2023-05-10T17:28:54.830Z,92.00
2023-05-10T17:31:24.026Z,91.70
2023-05-10T17:33:50.831Z,92.00
2023-05-10T17:36:22.605Z,92.30
2023-05-10T17:38:51.790Z,92.80
2023-05-10T17:41:21.739Z,92.40
2023-05-10T17:43:48.423Z,92.80
2023-05-10T17:46:15.160Z,92.90
2023-05-10T17:48:44.313Z,93.00
2023-05-10T17:51:14.093Z,93.20
2023-05-10T17:53:44.592Z,93.20
2023-05-10T17:56:11.431Z,93.10
2023-05-10T17:58:38.647Z,93.80
2023-05-10T18:01:08.001Z,94.00
2023-05-10T18:03:35.892Z,94.30
2023-05-10T18:06:04.406Z,93.20
2023-05-10T18:08:31.353Z,93.80
2023-05-10T18:10:58.051Z,93.50
2023-05-10T18:13:25.567Z,93.70
2023-05-10T18:15:54.674Z,93.80
2023-05-10T18:18:21.480Z,93.80
2023-05-10T18:20:49.336Z,93.90
2023-05-10T18:23:18.663Z,93.80
2023-05-10T18:25:45.434Z,94.00
2023-05-10T18:28:14.769Z,93.90
2023-05-10T18:30:44.233Z,93.80
2023-05-10T18:33:11.811Z,94.10
2023-05-10T18:35:40.205Z,94.10
2023-05-10T18:38:10.336Z,94.20
2023-05-10T18:40:41.946Z,94.10
2023-05-10T18:43:08.969Z,94.10
2023-05-10T18:45:35.735Z,94.30
2023-05-10T18:48:04.839Z,94.50
2023-05-10T18:50:31.493Z,94.40
2023-05-10T18:52:58.190Z,94.60
2023-05-10T18:55:28.252Z,94.50
2023-05-10T18:57:55.019Z,94.90
2023-05-10T19:00:21.869Z,94.80
2023-05-10T19:02:48.587Z,95.10
2023-05-10T19:05:16.009Z,95.10
2023-05-10T19:07:45.717Z,95.00
2023-05-10T19:10:13.508Z,95.10
2023-05-10T19:12:42.802Z,95.30
2023-05-10T19:15:10.547Z,95.30
2023-05-10T19:17:39.559Z,95.60
2023-05-10T19:20:08.101Z,95.80
2023-05-10T19:22:54.050Z,95.40
2023-05-10T19:25:29.674Z,95.90
2023-05-10T19:28:01.930Z,96.00
2023-05-10T19:30:33.268Z,96.10
2023-05-10T19:33:00.401Z,96.30
2023-05-10T19:35:29.459Z,96.20
2023-05-10T19:37:56.302Z,96.10
2023-05-10T19:40:23.246Z,96.20
2023-05-10T19:42:50.004Z,96.70
2023-05-10T19:45:21.892Z,96.60
2023-05-10T19:47:48.642Z,96.70
2023-05-10T19:50:18.268Z,97.00
2023-05-10T19:52:45.422Z,96.90
2023-05-10T19:55:27.096Z,96.90
2023-05-10T19:57:53.867Z,97.30
2023-05-10T20:00:20.646Z,97.80
2023-05-10T20:02:49.826Z,97.50
2023-05-10T20:05:19.127Z,97.70
2023-05-10T20:07:48.221Z,97.60
2023-05-10T20:10:15.813Z,97.90
2023-05-10T20:12:42.545Z,98.20
2023-05-10T20:15:09.495Z,98.20
2023-05-10T20:17:36.681Z,98.60
2023-05-10T20:20:03.901Z,98.60
2023-05-10T20:22:30.702Z,98.40
2023-05-10T20:24:59.925Z,98.50
2023-05-10T20:27:31.330Z,98.90
2023-05-10T20:30:00.629Z,98.80
2023-05-10T20:32:27.387Z,98.70
2023-05-10T20:34:58.522Z,98.70
2023-05-10T20:37:28.132Z,98.80
2023-05-10T20:39:55.489Z,98.90
2023-05-10T20:42:25.768Z,99.10
2023-05-10T20:44:52.441Z,99.30
2023-05-10T20:47:19.343Z,99.10
2023-05-10T20:49:50.736Z,99.40
2023-05-10T20:52:19.858Z,99.50
2023-05-10T20:54:46.586Z,99.50
2023-05-10T20:57:13.289Z,99.70
2023-05-10T20:59:42.915Z,99.70
2023-05-10T21:02:11.786Z,99.70
2023-05-10T21:04:38.579Z,99.90
2023-05-10T21:07:05.328Z,99.60
2023-05-10T21:09:35.650Z,99.90
2023-05-10T21:12:05.562Z,99.90
2023-05-10T21:14:32.394Z,99.90
2023-05-10T21:16:59.405Z,99.90
2023-05-10T21:19:26.074Z,99.90
2023-05-10T21:21:58.933Z,99.90
2023-05-10T21:24:27.986Z,99.90
2023-05-10T21:26:54.701Z,99.90
2023-05-10T21:29:23.829Z,99.90
2023-05-10T21:31:50.490Z,99.90
2023-05-10T21:34:20.770Z,99.90
2023-05-10T21:36:49.720Z,99.90
2023-05-10T21:39:18.696Z,99.90
2023-05-10T21:41:47.636Z,99.90
2023-05-10T21:44:14.677Z,99.90
2023-05-10T21:46:41.345Z,99.90
2023-05-10T21:49:08.110Z,99.90
2023-05-10T21:51:34.846Z,99.90
2023-05-10T21:54:01.743Z,99.90
2023-05-10T21:56:28.453Z,99.90
2023-05-10T21:58:55.099Z,99.90
2023-05-10T22:01:24.840Z,99.90
2023-05-10T22:03:54.074Z,99.90
2023-05-10T22:06:20.726Z,99.90
2023-05-10T22:08:49.558Z,99.90
2023-05-10T22:11:16.409Z,99.90
2023-05-10T22:13:43.085Z,99.90
2023-05-10T22:16:09.842Z,99.90
2023-05-10T22:18:38.768Z,99.90
2023-05-10T22:21:09.453Z,99.90
2023-05-10T22:23:38.602Z,99.90
2023-05-10T22:26:05.271Z,99.90
2023-05-10T22:28:32.083Z,99.90
2023-05-10T22:30:58.900Z,99.90
2023-05-10T22:33:28.417Z,99.90
2023-05-10T22:35:55.268Z,99.90
2023-05-10T22:38:22.341Z,99.90
2023-05-10T22:40:49.004Z,99.90
2023-05-10T22:43:16.944Z,99.90
2023-05-10T22:45:43.829Z,99.90
2023-05-10T22:48:10.638Z,99.90
2023-05-10T22:50:37.351Z,99.90
2023-05-10T22:53:07.254Z,99.90
2023-05-10T22:55:34.021Z,99.90
2023-05-10T22:58:01.048Z,99.90
2023-05-10T23:00:30.429Z,99.90
2023-05-10T23:02:57.454Z,99.90
2023-05-10T23:05:26.817Z,99.90
2023-05-10T23:07:55.912Z,99.90
2023-05-10T23:10:22.638Z,99.90
2023-05-10T23:12:49.341Z,99.90
2023-05-10T23:15:18.509Z,99.90
2023-05-10T23:17:49.930Z,99.90
2023-05-10T23:20:17.409Z,99.90
2023-05-10T23:22:44.889Z,99.90
2023-05-10T23:25:14.114Z,99.90
2023-05-10T23:27:40.834Z,99.90
2023-05-10T23:30:08.148Z,99.90
2023-05-10T23:32:37.314Z,99.90
2023-05-10T23:35:04.445Z,99.90
2023-05-10T23:37:31.134Z,99.90
2023-05-10T23:39:57.879Z,99.90
2023-05-10T23:42:26.788Z,99.90
2023-05-10T23:44:53.439Z,99.90
2023-05-10T23:47:20.263Z,99.90
2023-05-10T23:49:46.934Z,99.90
2023-05-10T23:52:15.732Z,99.90
2023-05-10T23:54:45.948Z,99.90
2023-05-10T23:57:14.998Z,99.90
2023-05-10T23:59:46.449Z,99.90
